sensor_id;sensor_type;location;lat;lon;timestamp;P1;durP1;ratioP1;P2;durP2;ratioP2
48629;SDS011;34426;52.180;4.462;2024-02-26T00:02:16;7.07;;;3.63;;
48629;SDS011;34426;52.180;4.462;2024-02-26T00:04:41;5.85;;;3.05;;
48629;SDS011;34426;52.180;4.462;2024-02-26T00:07:07;8.82;;;3.33;;
48629;SDS011;34426;52.180;4.462;2024-02-26T00:09:34;4.20;;;2.80;;
48629;SDS011;34426;52.180;4.462;2024-02-26T00:11:59;5.05;;;2.85;;
48629;SDS011;34426;52.180;4.462;2024-02-26T00:14:25;7.88;;;3.13;;
48629;SDS011;34426;52.180;4.462;2024-02-26T00:16:50;9.60;;;3.70;;
48629;SDS011;34426;52.180;4.462;2024-02-26T00:19:16;4.50;;;2.67;;
48629;SDS011;34426;52.180;4.462;2024-02-26T00:21:42;7.00;;;3.20;;
48629;SDS011;34426;52.180;4.462;2024-02-26T00:24:08;7.55;;;3.20;;
48629;SDS011;34426;52.180;4.462;2024-02-26T00:26:34;6.53;;;3.13;;
48629;SDS011;34426;52.180;4.462;2024-02-26T00:29:00;6.03;;;3.08;;
48629;SDS011;34426;52.180;4.462;2024-02-26T00:31:25;5.30;;;3.25;;
48629;SDS011;34426;52.180;4.462;2024-02-26T00:33:51;7.20;;;3.58;;
48629;SDS011;34426;52.180;4.462;2024-02-26T00:36:16;5.47;;;3.65;;
48629;SDS011;34426;52.180;4.462;2024-02-26T00:38:42;7.53;;;4.15;;
48629;SDS011;34426;52.180;4.462;2024-02-26T00:41:07;8.20;;;4.93;;
48629;SDS011;34426;52.180;4.462;2024-02-26T00:43:34;6.45;;;4.30;;
48629;SDS011;34426;52.180;4.462;2024-02-26T00:46:00;4.93;;;4.43;;
48629;SDS011;34426;52.180;4.462;2024-02-26T00:48:25;9.00;;;5.03;;
48629;SDS011;34426;52.180;4.462;2024-02-26T00:50:50;8.43;;;5.55;;
48629;SDS011;34426;52.180;4.462;2024-02-26T00:53:16;5.90;;;5.30;;
48629;SDS011;34426;52.180;4.462;2024-02-26T00:55:41;6.13;;;5.47;;
48629;SDS011;34426;52.180;4.462;2024-02-26T00:58:07;7.57;;;5.68;;
48629;SDS011;34426;52.180;4.462;2024-02-26T01:00:34;8.60;;;5.55;;
48629;SDS011;34426;52.180;4.462;2024-02-26T01:02:59;6.25;;;5.43;;
48629;SDS011;34426;52.180;4.462;2024-02-26T01:05:25;8.75;;;5.47;;
48629;SDS011;34426;52.180;4.462;2024-02-26T01:07:50;10.05;;;5.47;;
48629;SDS011;34426;52.180;4.462;2024-02-26T01:10:16;6.68;;;5.30;;
48629;SDS011;34426;52.180;4.462;2024-02-26T01:12:41;8.07;;;5.78;;
48629;SDS011;34426;52.180;4.462;2024-02-26T01:15:07;7.45;;;5.65;;
48629;SDS011;34426;52.180;4.462;2024-02-26T01:17:34;9.45;;;5.50;;
48629;SDS011;34426;52.180;4.462;2024-02-26T01:19:59;7.75;;;5.45;;
48629;SDS011;34426;52.180;4.462;2024-02-26T01:22:25;11.77;;;5.25;;
48629;SDS011;34426;52.180;4.462;2024-02-26T01:24:50;8.32;;;5.28;;
48629;SDS011;34426;52.180;4.462;2024-02-26T01:27:16;9.65;;;5.72;;
48629;SDS011;34426;52.180;4.462;2024-02-26T01:29:41;6.30;;;5.18;;
48629;SDS011;34426;52.180;4.462;2024-02-26T01:32:07;6.47;;;5.25;;
48629;SDS011;34426;52.180;4.462;2024-02-26T01:34:33;9.77;;;5.78;;
48629;SDS011;34426;52.180;4.462;2024-02-26T01:36:59;6.43;;;5.65;;
48629;SDS011;34426;52.180;4.462;2024-02-26T01:39:25;7.90;;;5.25;;
48629;SDS011;34426;52.180;4.462;2024-02-26T01:41:50;8.85;;;6.00;;
48629;SDS011;34426;52.180;4.462;2024-02-26T01:44:15;9.13;;;6.32;;
48629;SDS011;34426;52.180;4.462;2024-02-26T01:46:41;8.30;;;6.22;;
48629;SDS011;34426;52.180;4.462;2024-02-26T01:49:07;10.27;;;7.28;;
48629;SDS011;34426;52.180;4.462;2024-02-26T01:51:38;9.80;;;7.72;;
48629;SDS011;34426;52.180;4.462;2024-02-26T01:54:04;13.82;;;6.95;;
48629;SDS011;34426;52.180;4.462;2024-02-26T01:56:31;8.80;;;7.43;;
48629;SDS011;34426;52.180;4.462;2024-02-26T01:58:57;12.75;;;8.70;;
48629;SDS011;34426;52.180;4.462;2024-02-26T02:01:24;8.90;;;8.00;;
48629;SDS011;34426;52.180;4.462;2024-02-26T02:03:51;9.35;;;8.40;;
48629;SDS011;34426;52.180;4.462;2024-02-26T02:06:18;9.02;;;8.13;;
48629;SDS011;34426;52.180;4.462;2024-02-26T02:08:45;10.32;;;8.88;;
48629;SDS011;34426;52.180;4.462;2024-02-26T02:11:11;11.32;;;8.38;;
48629;SDS011;34426;52.180;4.462;2024-02-26T02:13:37;13.25;;;7.90;;
48629;SDS011;34426;52.180;4.462;2024-02-26T02:16:03;9.52;;;8.13;;
48629;SDS011;34426;52.180;4.462;2024-02-26T02:18:29;10.75;;;7.82;;
48629;SDS011;34426;52.180;4.462;2024-02-26T02:20:55;9.75;;;7.35;;
48629;SDS011;34426;52.180;4.462;2024-02-26T02:23:21;7.85;;;6.60;;
48629;SDS011;34426;52.180;4.462;2024-02-26T02:25:46;9.75;;;6.57;;
48629;SDS011;34426;52.180;4.462;2024-02-26T02:28:12;6.93;;;6.22;;
48629;SDS011;34426;52.180;4.462;2024-02-26T02:30:37;7.22;;;6.28;;
48629;SDS011;34426;52.180;4.462;2024-02-26T02:33:04;6.00;;;5.07;;
48629;SDS011;34426;52.180;4.462;2024-02-26T02:35:30;9.43;;;5.47;;
48629;SDS011;34426;52.180;4.462;2024-02-26T02:37:57;5.95;;;5.35;;
48629;SDS011;34426;52.180;4.462;2024-02-26T02:40:22;8.45;;;5.60;;
48629;SDS011;34426;52.180;4.462;2024-02-26T02:42:48;7.18;;;5.70;;
48629;SDS011;34426;52.180;4.462;2024-02-26T02:45:13;10.20;;;6.43;;
48629;SDS011;34426;52.180;4.462;2024-02-26T02:47:39;8.02;;;5.97;;
48629;SDS011;34426;52.180;4.462;2024-02-26T02:50:05;7.15;;;6.47;;
48629;SDS011;34426;52.180;4.462;2024-02-26T02:52:31;10.48;;;7.20;;
48629;SDS011;34426;52.180;4.462;2024-02-26T02:54:58;9.13;;;6.85;;
48629;SDS011;34426;52.180;4.462;2024-02-26T02:57:23;8.40;;;7.25;;
48629;SDS011;34426;52.180;4.462;2024-02-26T02:59:49;8.50;;;7.60;;
48629;SDS011;34426;52.180;4.462;2024-02-26T03:02:14;11.77;;;7.97;;
48629;SDS011;34426;52.180;4.462;2024-02-26T03:04:40;9.07;;;7.95;;
48629;SDS011;34426;52.180;4.462;2024-02-26T03:07:05;9.38;;;7.97;;
48629;SDS011;34426;52.180;4.462;2024-02-26T03:09:31;11.43;;;9.30;;
48629;SDS011;34426;52.180;4.462;2024-02-26T03:11:58;10.27;;;9.05;;
48629;SDS011;34426;52.180;4.462;2024-02-26T03:14:23;10.30;;;9.15;;
48629;SDS011;34426;52.180;4.462;2024-02-26T03:16:49;12.63;;;9.15;;
48629;SDS011;34426;52.180;4.462;2024-02-26T03:19:14;11.38;;;9.73;;
48629;SDS011;34426;52.180;4.462;2024-02-26T03:21:40;10.98;;;9.57;;
48629;SDS011;34426;52.180;4.462;2024-02-26T03:24:06;11.77;;;9.48;;
48629;SDS011;34426;52.180;4.462;2024-02-26T03:26:31;12.20;;;9.85;;
48629;SDS011;34426;52.180;4.462;2024-02-26T03:28:58;13.13;;;10.38;;
48629;SDS011;34426;52.180;4.462;2024-02-26T03:31:23;11.70;;;10.13;;
48629;SDS011;34426;52.180;4.462;2024-02-26T03:33:49;12.15;;;10.95;;
48629;SDS011;34426;52.180;4.462;2024-02-26T03:36:14;11.10;;;9.98;;
48629;SDS011;34426;52.180;4.462;2024-02-26T03:38:40;12.38;;;11.07;;
48629;SDS011;34426;52.180;4.462;2024-02-26T03:41:05;13.88;;;11.00;;
48629;SDS011;34426;52.180;4.462;2024-02-26T03:43:31;15.00;;;11.35;;
48629;SDS011;34426;52.180;4.462;2024-02-26T03:45:58;13.30;;;11.27;;
48629;SDS011;34426;52.180;4.462;2024-02-26T03:48:23;13.85;;;12.15;;
48629;SDS011;34426;52.180;4.462;2024-02-26T03:50:48;13.43;;;12.02;;
48629;SDS011;34426;52.180;4.462;2024-02-26T03:53:14;14.07;;;11.98;;
48629;SDS011;34426;52.180;4.462;2024-02-26T03:55:39;15.18;;;11.73;;
48629;SDS011;34426;52.180;4.462;2024-02-26T03:58:05;14.48;;;11.95;;
48629;SDS011;34426;52.180;4.462;2024-02-26T04:00:30;15.02;;;12.68;;
48629;SDS011;34426;52.180;4.462;2024-02-26T04:02:57;15.82;;;12.50;;
48629;SDS011;34426;52.180;4.462;2024-02-26T04:05:22;15.48;;;12.18;;
48629;SDS011;34426;52.180;4.462;2024-02-26T04:07:48;16.15;;;13.02;;
48629;SDS011;34426;52.180;4.462;2024-02-26T04:10:13;16.38;;;13.50;;
48629;SDS011;34426;52.180;4.462;2024-02-26T04:12:39;16.15;;;13.48;;
48629;SDS011;34426;52.180;4.462;2024-02-26T04:15:05;14.90;;;12.88;;
48629;SDS011;34426;52.180;4.462;2024-02-26T04:17:31;17.67;;;14.07;;
48629;SDS011;34426;52.180;4.462;2024-02-26T04:19:58;16.42;;;14.55;;
48629;SDS011;34426;52.180;4.462;2024-02-26T04:22:23;15.43;;;13.32;;
48629;SDS011;34426;52.180;4.462;2024-02-26T04:24:49;15.65;;;13.30;;
48629;SDS011;34426;52.180;4.462;2024-02-26T04:27:14;17.42;;;14.43;;
48629;SDS011;34426;52.180;4.462;2024-02-26T04:29:40;17.77;;;14.27;;
48629;SDS011;34426;52.180;4.462;2024-02-26T04:32:05;16.70;;;14.20;;
48629;SDS011;34426;52.180;4.462;2024-02-26T04:34:31;21.58;;;14.25;;
48629;SDS011;34426;52.180;4.462;2024-02-26T04:36:58;17.80;;;14.50;;
48629;SDS011;34426;52.180;4.462;2024-02-26T04:39:23;18.05;;;14.57;;
48629;SDS011;34426;52.180;4.462;2024-02-26T04:41:49;16.33;;;13.30;;
48629;SDS011;34426;52.180;4.462;2024-02-26T04:44:14;19.77;;;14.30;;
48629;SDS011;34426;52.180;4.462;2024-02-26T04:46:40;14.98;;;13.32;;
48629;SDS011;34426;52.180;4.462;2024-02-26T04:49:05;19.25;;;14.70;;
48629;SDS011;34426;52.180;4.462;2024-02-26T04:51:31;15.40;;;13.68;;
48629;SDS011;34426;52.180;4.462;2024-02-26T04:53:57;17.10;;;14.43;;
48629;SDS011;34426;52.180;4.462;2024-02-26T04:56:24;19.45;;;14.35;;
48629;SDS011;34426;52.180;4.462;2024-02-26T04:58:50;17.60;;;15.27;;
48629;SDS011;34426;52.180;4.462;2024-02-26T05:01:16;18.85;;;15.55;;
48629;SDS011;34426;52.180;4.462;2024-02-26T05:03:42;22.23;;;16.20;;
48629;SDS011;34426;52.180;4.462;2024-02-26T05:06:08;19.23;;;15.98;;
48629;SDS011;34426;52.180;4.462;2024-02-26T05:08:33;17.83;;;15.85;;
48629;SDS011;34426;52.180;4.462;2024-02-26T05:11:00;21.13;;;15.90;;
48629;SDS011;34426;52.180;4.462;2024-02-26T05:13:26;18.55;;;15.73;;
48629;SDS011;34426;52.180;4.462;2024-02-26T05:15:51;26.08;;;16.38;;
48629;SDS011;34426;52.180;4.462;2024-02-26T05:18:17;27.50;;;17.65;;
48629;SDS011;34426;52.180;4.462;2024-02-26T05:20:42;20.40;;;17.20;;
48629;SDS011;34426;52.180;4.462;2024-02-26T05:23:07;21.92;;;17.95;;
48629;SDS011;34426;52.180;4.462;2024-02-26T05:25:34;19.67;;;17.50;;
48629;SDS011;34426;52.180;4.462;2024-02-26T05:28:01;21.98;;;18.40;;
48629;SDS011;34426;52.180;4.462;2024-02-26T05:30:26;23.83;;;19.17;;
48629;SDS011;34426;52.180;4.462;2024-02-26T05:32:51;26.05;;;18.92;;
48629;SDS011;34426;52.180;4.462;2024-02-26T05:35:17;28.33;;;19.23;;
48629;SDS011;34426;52.180;4.462;2024-02-26T05:37:42;25.55;;;20.52;;
48629;SDS011;34426;52.180;4.462;2024-02-26T05:40:08;24.48;;;19.02;;
48629;SDS011;34426;52.180;4.462;2024-02-26T05:42:34;27.65;;;20.38;;
48629;SDS011;34426;52.180;4.462;2024-02-26T05:45:01;24.42;;;20.38;;
48629;SDS011;34426;52.180;4.462;2024-02-26T05:47:26;26.80;;;21.25;;
48629;SDS011;34426;52.180;4.462;2024-02-26T05:49:52;26.30;;;21.17;;
48629;SDS011;34426;52.180;4.462;2024-02-26T05:52:17;26.25;;;20.77;;
48629;SDS011;34426;52.180;4.462;2024-02-26T05:54:43;25.95;;;20.48;;
48629;SDS011;34426;52.180;4.462;2024-02-26T05:57:08;25.58;;;20.63;;
48629;SDS011;34426;52.180;4.462;2024-02-26T05:59:33;28.65;;;22.33;;
48629;SDS011;34426;52.180;4.462;2024-02-26T06:02:00;23.00;;;20.50;;
48629;SDS011;34426;52.180;4.462;2024-02-26T06:04:26;26.58;;;22.00;;
48629;SDS011;34426;52.180;4.462;2024-02-26T06:06:51;26.30;;;21.02;;
48629;SDS011;34426;52.180;4.462;2024-02-26T06:09:17;28.55;;;22.00;;
48629;SDS011;34426;52.180;4.462;2024-02-26T06:11:42;26.23;;;21.58;;
48629;SDS011;34426;52.180;4.462;2024-02-26T06:14:08;27.75;;;21.75;;
48629;SDS011;34426;52.180;4.462;2024-02-26T06:16:33;26.85;;;22.42;;
48629;SDS011;34426;52.180;4.462;2024-02-26T06:19:00;29.10;;;22.80;;
48629;SDS011;34426;52.180;4.462;2024-02-26T06:21:25;26.38;;;22.10;;
48629;SDS011;34426;52.180;4.462;2024-02-26T06:23:51;27.25;;;22.85;;
48629;SDS011;34426;52.180;4.462;2024-02-26T06:26:16;26.65;;;21.30;;
48629;SDS011;34426;52.180;4.462;2024-02-26T06:28:42;27.08;;;22.00;;
48629;SDS011;34426;52.180;4.462;2024-02-26T06:31:07;24.75;;;20.63;;
48629;SDS011;34426;52.180;4.462;2024-02-26T06:33:33;25.23;;;21.20;;
48629;SDS011;34426;52.180;4.462;2024-02-26T06:35:59;30.75;;;21.90;;
48629;SDS011;34426;52.180;4.462;2024-02-26T06:38:25;26.00;;;19.27;;
48629;SDS011;34426;52.180;4.462;2024-02-26T06:40:50;26.58;;;20.20;;
48629;SDS011;34426;52.180;4.462;2024-02-26T06:43:16;22.02;;;18.65;;
48629;SDS011;34426;52.180;4.462;2024-02-26T06:45:41;22.35;;;18.75;;
48629;SDS011;34426;52.180;4.462;2024-02-26T06:48:07;21.13;;;18.13;;
48629;SDS011;34426;52.180;4.462;2024-02-26T06:50:32;20.48;;;17.75;;
48629;SDS011;34426;52.180;4.462;2024-02-26T06:52:59;21.10;;;16.52;;
48629;SDS011;34426;52.180;4.462;2024-02-26T06:55:24;21.13;;;16.88;;
48629;SDS011;34426;52.180;4.462;2024-02-26T06:57:50;19.60;;;17.45;;
48629;SDS011;34426;52.180;4.462;2024-02-26T07:00:16;21.08;;;16.27;;
48629;SDS011;34426;52.180;4.462;2024-02-26T07:02:41;20.02;;;16.83;;
48629;SDS011;34426;52.180;4.462;2024-02-26T07:05:07;18.98;;;16.05;;
48629;SDS011;34426;52.180;4.462;2024-02-26T07:07:33;21.83;;;16.77;;
48629;SDS011;34426;52.180;4.462;2024-02-26T07:10:00;21.50;;;15.95;;
48629;SDS011;34426;52.180;4.462;2024-02-26T07:12:26;18.50;;;15.23;;
48629;SDS011;34426;52.180;4.462;2024-02-26T07:14:51;15.73;;;14.10;;
48629;SDS011;34426;52.180;4.462;2024-02-26T07:17:16;21.52;;;14.05;;
48629;SDS011;34426;52.180;4.462;2024-02-26T07:19:42;16.83;;;13.88;;
48629;SDS011;34426;52.180;4.462;2024-02-26T07:22:08;17.80;;;12.77;;
48629;SDS011;34426;52.180;4.462;2024-02-26T07:24:33;13.70;;;12.15;;
48629;SDS011;34426;52.180;4.462;2024-02-26T07:27:00;16.92;;;13.20;;
48629;SDS011;34426;52.180;4.462;2024-02-26T07:29:25;16.58;;;12.15;;
48629;SDS011;34426;52.180;4.462;2024-02-26T07:31:51;15.05;;;11.52;;
48629;SDS011;34426;52.180;4.462;2024-02-26T07:34:16;14.70;;;11.05;;
48629;SDS011;34426;52.180;4.462;2024-02-26T07:36:42;13.60;;;10.90;;
48629;SDS011;34426;52.180;4.462;2024-02-26T07:39:07;12.70;;;10.68;;
48629;SDS011;34426;52.180;4.462;2024-02-26T07:41:33;13.55;;;9.90;;
48629;SDS011;34426;52.180;4.462;2024-02-26T07:44:00;13.02;;;8.98;;
48629;SDS011;34426;52.180;4.462;2024-02-26T07:46:25;12.60;;;9.52;;
48629;SDS011;34426;52.180;4.462;2024-02-26T07:48:51;9.50;;;8.38;;
48629;SDS011;34426;52.180;4.462;2024-02-26T07:51:16;12.20;;;8.65;;
48629;SDS011;34426;52.180;4.462;2024-02-26T07:53:41;12.18;;;8.32;;
48629;SDS011;34426;52.180;4.462;2024-02-26T07:56:07;10.70;;;8.38;;
48629;SDS011;34426;52.180;4.462;2024-02-26T07:58:33;11.27;;;8.43;;
48629;SDS011;34426;52.180;4.462;2024-02-26T08:01:00;8.90;;;7.30;;
48629;SDS011;34426;52.180;4.462;2024-02-26T08:03:26;9.55;;;8.02;;
48629;SDS011;34426;52.180;4.462;2024-02-26T08:05:51;9.77;;;6.90;;
48629;SDS011;34426;52.180;4.462;2024-02-26T08:08:17;11.70;;;7.75;;
48629;SDS011;34426;52.180;4.462;2024-02-26T08:10:42;10.68;;;7.57;;
48629;SDS011;34426;52.180;4.462;2024-02-26T08:13:08;10.07;;;7.72;;
48629;SDS011;34426;52.180;4.462;2024-02-26T08:15:34;11.45;;;7.70;;
48629;SDS011;34426;52.180;4.462;2024-02-26T08:18:02;8.68;;;7.05;;
48629;SDS011;34426;52.180;4.462;2024-02-26T08:20:27;11.30;;;7.07;;
48629;SDS011;34426;52.180;4.462;2024-02-26T08:22:53;11.15;;;7.30;;
48629;SDS011;34426;52.180;4.462;2024-02-26T08:25:19;10.23;;;6.40;;
48629;SDS011;34426;52.180;4.462;2024-02-26T08:27:44;11.02;;;7.40;;
48629;SDS011;34426;52.180;4.462;2024-02-26T08:30:10;10.48;;;6.70;;
48629;SDS011;34426;52.180;4.462;2024-02-26T08:32:37;9.23;;;6.72;;
48629;SDS011;34426;52.180;4.462;2024-02-26T08:35:04;14.68;;;7.07;;
48629;SDS011;34426;52.180;4.462;2024-02-26T08:37:30;7.60;;;6.70;;
48629;SDS011;34426;52.180;4.462;2024-02-26T08:39:55;8.38;;;6.15;;
48629;SDS011;34426;52.180;4.462;2024-02-26T08:42:20;10.57;;;6.18;;
48629;SDS011;34426;52.180;4.462;2024-02-26T08:44:46;12.10;;;6.72;;
48629;SDS011;34426;52.180;4.462;2024-02-26T08:47:11;12.93;;;6.05;;
48629;SDS011;34426;52.180;4.462;2024-02-26T08:49:37;6.75;;;5.68;;
48629;SDS011;34426;52.180;4.462;2024-02-26T08:52:08;9.15;;;5.70;;
48629;SDS011;34426;52.180;4.462;2024-02-26T08:54:33;9.45;;;5.47;;
48629;SDS011;34426;52.180;4.462;2024-02-26T08:56:59;8.55;;;5.47;;
48629;SDS011;34426;52.180;4.462;2024-02-26T08:59:24;6.25;;;5.50;;
48629;SDS011;34426;52.180;4.462;2024-02-26T09:01:50;7.95;;;5.90;;
48629;SDS011;34426;52.180;4.462;2024-02-26T09:04:15;8.10;;;6.22;;
48629;SDS011;34426;52.180;4.462;2024-02-26T09:06:42;7.00;;;5.47;;
48629;SDS011;34426;52.180;4.462;2024-02-26T09:09:08;8.30;;;6.00;;
48629;SDS011;34426;52.180;4.462;2024-02-26T09:11:34;8.43;;;6.07;;
48629;SDS011;34426;52.180;4.462;2024-02-26T09:13:59;8.75;;;5.20;;
48629;SDS011;34426;52.180;4.462;2024-02-26T09:16:25;7.13;;;5.60;;
48629;SDS011;34426;52.180;4.462;2024-02-26T09:18:50;6.53;;;5.38;;
48629;SDS011;34426;52.180;4.462;2024-02-26T09:21:16;7.30;;;5.22;;
48629;SDS011;34426;52.180;4.462;2024-02-26T09:23:41;8.10;;;5.47;;
48629;SDS011;34426;52.180;4.462;2024-02-26T09:26:08;8.65;;;4.95;;
48629;SDS011;34426;52.180;4.462;2024-02-26T09:28:33;4.88;;;4.35;;
48629;SDS011;34426;52.180;4.462;2024-02-26T09:30:59;7.45;;;4.38;;
48629;SDS011;34426;52.180;4.462;2024-02-26T09:33:24;8.73;;;4.85;;
48629;SDS011;34426;52.180;4.462;2024-02-26T09:35:50;7.40;;;5.18;;
48629;SDS011;34426;52.180;4.462;2024-02-26T09:38:15;7.20;;;4.85;;
48629;SDS011;34426;52.180;4.462;2024-02-26T09:40:41;9.90;;;5.05;;
48629;SDS011;34426;52.180;4.462;2024-02-26T09:43:07;8.10;;;5.40;;
48629;SDS011;34426;52.180;4.462;2024-02-26T09:45:39;7.00;;;5.47;;
48629;SDS011;34426;52.180;4.462;2024-02-26T09:48:06;6.22;;;4.95;;
48629;SDS011;34426;52.180;4.462;2024-02-26T09:50:35;7.47;;;5.05;;
48629;SDS011;34426;52.180;4.462;2024-02-26T09:53:01;7.68;;;5.03;;
48629;SDS011;34426;52.180;4.462;2024-02-26T09:55:27;8.27;;;4.97;;
48629;SDS011;34426;52.180;4.462;2024-02-26T09:57:53;6.72;;;4.65;;
48629;SDS011;34426;52.180;4.462;2024-02-26T10:00:21;6.35;;;4.97;;
48629;SDS011;34426;52.180;4.462;2024-02-26T10:02:47;7.80;;;5.18;;
48629;SDS011;34426;52.180;4.462;2024-02-26T10:05:14;5.78;;;4.85;;
48629;SDS011;34426;52.180;4.462;2024-02-26T10:07:41;5.38;;;4.75;;
48629;SDS011;34426;52.180;4.462;2024-02-26T10:10:09;6.97;;;4.80;;
48629;SDS011;34426;52.180;4.462;2024-02-26T10:12:34;5.55;;;4.97;;
48629;SDS011;34426;52.180;4.462;2024-02-26T10:15:00;8.02;;;4.70;;
48629;SDS011;34426;52.180;4.462;2024-02-26T10:17:28;16.08;;;5.13;;
48629;SDS011;34426;52.180;4.462;2024-02-26T10:19:54;5.55;;;4.78;;
48629;SDS011;34426;52.180;4.462;2024-02-26T10:22:19;6.15;;;4.65;;
48629;SDS011;34426;52.180;4.462;2024-02-26T10:24:47;7.82;;;5.13;;
48629;SDS011;34426;52.180;4.462;2024-02-26T10:27:12;7.00;;;4.75;;
48629;SDS011;34426;52.180;4.462;2024-02-26T10:29:38;7.05;;;4.25;;
48629;SDS011;34426;52.180;4.462;2024-02-26T10:32:04;7.88;;;4.50;;
48629;SDS011;34426;52.180;4.462;2024-02-26T10:34:32;6.60;;;4.70;;
48629;SDS011;34426;52.180;4.462;2024-02-26T10:36:57;6.13;;;4.53;;
48629;SDS011;34426;52.180;4.462;2024-02-26T10:39:26;9.32;;;4.65;;
48629;SDS011;34426;52.180;4.462;2024-02-26T10:41:51;5.63;;;4.43;;
48629;SDS011;34426;52.180;4.462;2024-02-26T10:44:17;8.65;;;4.70;;
48629;SDS011;34426;52.180;4.462;2024-02-26T10:46:42;9.70;;;4.60;;
48629;SDS011;34426;52.180;4.462;2024-02-26T10:49:12;5.15;;;4.65;;
48629;SDS011;34426;52.180;4.462;2024-02-26T10:51:41;5.93;;;4.00;;
48629;SDS011;34426;52.180;4.462;2024-02-26T10:54:09;6.00;;;4.30;;
48629;SDS011;34426;52.180;4.462;2024-02-26T10:56:40;4.78;;;4.25;;
48629;SDS011;34426;52.180;4.462;2024-02-26T10:59:07;7.40;;;4.40;;
48629;SDS011;34426;52.180;4.462;2024-02-26T11:01:34;8.50;;;4.72;;
48629;SDS011;34426;52.180;4.462;2024-02-26T11:04:01;5.72;;;4.68;;
48629;SDS011;34426;52.180;4.462;2024-02-26T11:06:27;10.43;;;4.30;;
48629;SDS011;34426;52.180;4.462;2024-02-26T11:08:55;5.80;;;4.35;;
48629;SDS011;34426;52.180;4.462;2024-02-26T11:11:21;4.78;;;3.97;;
48629;SDS011;34426;52.180;4.462;2024-02-26T11:13:47;5.32;;;4.07;;
48629;SDS011;34426;52.180;4.462;2024-02-26T11:16:15;5.55;;;3.90;;
48629;SDS011;34426;52.180;4.462;2024-02-26T11:18:43;5.32;;;3.90;;
48629;SDS011;34426;52.180;4.462;2024-02-26T11:21:11;5.32;;;4.10;;
48629;SDS011;34426;52.180;4.462;2024-02-26T11:23:40;6.00;;;4.30;;
48629;SDS011;34426;52.180;4.462;2024-02-26T11:26:08;5.45;;;3.78;;
48629;SDS011;34426;52.180;4.462;2024-02-26T11:28:36;5.57;;;3.30;;
48629;SDS011;34426;52.180;4.462;2024-02-26T11:31:03;3.63;;;3.22;;
48629;SDS011;34426;52.180;4.462;2024-02-26T11:33:30;7.38;;;3.53;;
48629;SDS011;34426;52.180;4.462;2024-02-26T11:35:56;4.43;;;3.30;;
48629;SDS011;34426;52.180;4.462;2024-02-26T11:38:21;5.35;;;2.90;;
48629;SDS011;34426;52.180;4.462;2024-02-26T11:40:49;6.53;;;2.90;;
48629;SDS011;34426;52.180;4.462;2024-02-26T11:43:17;6.22;;;3.47;;
48629;SDS011;34426;52.180;4.462;2024-02-26T11:45:51;6.80;;;3.40;;
48629;SDS011;34426;52.180;4.462;2024-02-26T11:48:19;7.90;;;3.10;;
48629;SDS011;34426;52.180;4.462;2024-02-26T11:50:47;5.72;;;2.95;;
48629;SDS011;34426;52.180;4.462;2024-02-26T11:53:19;3.85;;;2.75;;
48629;SDS011;34426;52.180;4.462;2024-02-26T11:55:45;6.80;;;3.53;;
48629;SDS011;34426;52.180;4.462;2024-02-26T11:58:10;9.68;;;2.92;;
48629;SDS011;34426;52.180;4.462;2024-02-26T12:00:37;3.72;;;2.75;;
48629;SDS011;34426;52.180;4.462;2024-02-26T12:03:05;4.47;;;2.50;;
48629;SDS011;34426;52.180;4.462;2024-02-26T12:05:31;3.45;;;2.20;;
48629;SDS011;34426;52.180;4.462;2024-02-26T12:07:59;4.57;;;2.60;;
48629;SDS011;34426;52.180;4.462;2024-02-26T12:10:26;4.68;;;2.63;;
48629;SDS011;34426;52.180;4.462;2024-02-26T12:12:59;3.55;;;2.40;;
48629;SDS011;34426;52.180;4.462;2024-02-26T12:15:29;6.53;;;2.80;;
48629;SDS011;34426;52.180;4.462;2024-02-26T12:17:57;4.35;;;2.38;;
48629;SDS011;34426;52.180;4.462;2024-02-26T12:20:23;4.10;;;2.50;;
48629;SDS011;34426;52.180;4.462;2024-02-26T12:22:49;6.47;;;2.60;;
48629;SDS011;34426;52.180;4.462;2024-02-26T12:25:15;4.55;;;2.30;;
48629;SDS011;34426;52.180;4.462;2024-02-26T12:27:41;5.72;;;2.50;;
48629;SDS011;34426;52.180;4.462;2024-02-26T12:30:07;3.75;;;2.20;;
48629;SDS011;34426;52.180;4.462;2024-02-26T12:32:33;5.78;;;2.40;;
48629;SDS011;34426;52.180;4.462;2024-02-26T12:35:01;7.45;;;2.30;;
48629;SDS011;34426;52.180;4.462;2024-02-26T12:37:27;7.53;;;2.72;;
48629;SDS011;34426;52.180;4.462;2024-02-26T12:39:53;3.95;;;2.30;;
48629;SDS011;34426;52.180;4.462;2024-02-26T12:42:18;4.13;;;2.20;;
48629;SDS011;34426;52.180;4.462;2024-02-26T12:44:44;5.72;;;2.60;;
48629;SDS011;34426;52.180;4.462;2024-02-26T12:47:10;4.13;;;1.73;;
48629;SDS011;34426;52.180;4.462;2024-02-26T12:49:35;5.63;;;2.22;;
48629;SDS011;34426;52.180;4.462;2024-02-26T12:52:03;3.30;;;2.10;;
48629;SDS011;34426;52.180;4.462;2024-02-26T12:54:30;4.38;;;2.15;;
48629;SDS011;34426;52.180;4.462;2024-02-26T12:56:56;7.75;;;2.70;;
48629;SDS011;34426;52.180;4.462;2024-02-26T12:59:22;4.25;;;2.10;;
48629;SDS011;34426;52.180;4.462;2024-02-26T13:01:48;5.07;;;2.55;;
48629;SDS011;34426;52.180;4.462;2024-02-26T13:04:14;4.10;;;2.10;;
48629;SDS011;34426;52.180;4.462;2024-02-26T13:06:39;7.32;;;2.72;;
48629;SDS011;34426;52.180;4.462;2024-02-26T13:09:06;6.53;;;3.08;;
48629;SDS011;34426;52.180;4.462;2024-02-26T13:11:32;4.65;;;2.38;;
48629;SDS011;34426;52.180;4.462;2024-02-26T13:13:58;11.65;;;2.78;;
48629;SDS011;34426;52.180;4.462;2024-02-26T13:16:23;9.30;;;2.70;;
48629;SDS011;34426;52.180;4.462;2024-02-26T13:18:50;13.60;;;4.30;;
48629;SDS011;34426;52.180;4.462;2024-02-26T13:21:15;7.97;;;2.28;;
48629;SDS011;34426;52.180;4.462;2024-02-26T13:23:43;8.23;;;2.78;;
48629;SDS011;34426;52.180;4.462;2024-02-26T13:26:14;5.45;;;2.40;;
48629;SDS011;34426;52.180;4.462;2024-02-26T13:28:40;3.30;;;2.30;;
48629;SDS011;34426;52.180;4.462;2024-02-26T13:31:05;2.88;;;2.15;;
48629;SDS011;34426;52.180;4.462;2024-02-26T13:33:31;11.90;;;2.75;;
48629;SDS011;34426;52.180;4.462;2024-02-26T13:35:57;7.03;;;2.40;;
48629;SDS011;34426;52.180;4.462;2024-02-26T13:38:23;5.80;;;2.05;;
48629;SDS011;34426;52.180;4.462;2024-02-26T13:40:49;7.90;;;2.17;;
48629;SDS011;34426;52.180;4.462;2024-02-26T13:43:16;4.90;;;2.42;;
48629;SDS011;34426;52.180;4.462;2024-02-26T13:45:42;2.85;;;2.03;;
48629;SDS011;34426;52.180;4.462;2024-02-26T13:48:08;6.53;;;2.10;;
48629;SDS011;34426;52.180;4.462;2024-02-26T13:50:34;6.93;;;2.58;;
48629;SDS011;34426;52.180;4.462;2024-02-26T13:52:59;4.82;;;2.08;;
48629;SDS011;34426;52.180;4.462;2024-02-26T13:55:25;8.73;;;1.95;;
48629;SDS011;34426;52.180;4.462;2024-02-26T13:57:50;5.07;;;2.22;;
48629;SDS011;34426;52.180;4.462;2024-02-26T14:00:18;5.15;;;1.80;;
48629;SDS011;34426;52.180;4.462;2024-02-26T14:02:43;4.40;;;2.00;;
48629;SDS011;34426;52.180;4.462;2024-02-26T14:05:09;4.80;;;2.10;;
48629;SDS011;34426;52.180;4.462;2024-02-26T14:07:34;3.80;;;2.10;;
48629;SDS011;34426;52.180;4.462;2024-02-26T14:10:00;5.40;;;1.90;;
48629;SDS011;34426;52.180;4.462;2024-02-26T14:12:25;11.18;;;2.22;;
48629;SDS011;34426;52.180;4.462;2024-02-26T14:14:51;6.03;;;2.20;;
48629;SDS011;34426;52.180;4.462;2024-02-26T14:17:18;5.10;;;2.15;;
48629;SDS011;34426;52.180;4.462;2024-02-26T14:19:43;5.03;;;2.20;;
48629;SDS011;34426;52.180;4.462;2024-02-26T14:22:08;5.45;;;2.25;;
48629;SDS011;34426;52.180;4.462;2024-02-26T14:24:35;8.23;;;2.65;;
48629;SDS011;34426;52.180;4.462;2024-02-26T14:27:01;3.20;;;2.50;;
48629;SDS011;34426;52.180;4.462;2024-02-26T14:29:26;5.40;;;2.72;;
48629;SDS011;34426;52.180;4.462;2024-02-26T14:31:52;8.50;;;2.90;;